sensor_id;sensor_type;location;lat;lon;timestamp;P1;durP1;ratioP1;P2;durP2;ratioP2
48805;SDS011;34625;47.176;27.548;2023-07-13T00:01:29;10.30;;;6.00;;
48805;SDS011;34625;47.176;27.548;2023-07-13T00:03:58;9.50;;;5.40;;
48805;SDS011;34625;47.176;27.548;2023-07-13T00:06:25;7.72;;;5.65;;
48805;SDS011;34625;47.176;27.548;2023-07-13T00:08:54;7.47;;;5.40;;
48805;SDS011;34625;47.176;27.548;2023-07-13T00:11:20;9.70;;;5.45;;
48805;SDS011;34625;47.176;27.548;2023-07-13T00:13:46;8.38;;;5.07;;
48805;SDS011;34625;47.176;27.548;2023-07-13T00:16:12;10.80;;;5.97;;
48805;SDS011;34625;47.176;27.548;2023-07-13T00:18:39;7.80;;;5.55;;
48805;SDS011;34625;47.176;27.548;2023-07-13T00:21:05;8.13;;;5.85;;
48805;SDS011;34625;47.176;27.548;2023-07-13T00:23:35;9.98;;;5.72;;
48805;SDS011;34625;47.176;27.548;2023-07-13T00:26:03;7.53;;;6.00;;
48805;SDS011;34625;47.176;27.548;2023-07-13T00:28:30;8.30;;;5.95;;
48805;SDS011;34625;47.176;27.548;2023-07-13T00:30:57;6.32;;;5.35;;
48805;SDS011;34625;47.176;27.548;2023-07-13T00:33:23;7.40;;;5.80;;
48805;SDS011;34625;47.176;27.548;2023-07-13T00:35:49;8.25;;;5.95;;
48805;SDS011;34625;47.176;27.548;2023-07-13T00:38:15;7.68;;;6.00;;
48805;SDS011;34625;47.176;27.548;2023-07-13T00:40:42;10.15;;;5.88;;
48805;SDS011;34625;47.176;27.548;2023-07-13T00:43:12;8.68;;;5.88;;
48805;SDS011;34625;47.176;27.548;2023-07-13T00:48:10;6.95;;;5.82;;
48805;SDS011;34625;47.176;27.548;2023-07-13T00:50:39;6.65;;;5.68;;
48805;SDS011;34625;47.176;27.548;2023-07-13T00:53:06;6.93;;;5.40;;
48805;SDS011;34625;47.176;27.548;2023-07-13T00:55:33;8.70;;;5.55;;
48805;SDS011;34625;47.176;27.548;2023-07-13T00:58:01;6.25;;;5.63;;
48805;SDS011;34625;47.176;27.548;2023-07-13T01:00:27;6.78;;;5.45;;
48805;SDS011;34625;47.176;27.548;2023-07-13T01:02:55;6.72;;;5.97;;
48805;SDS011;34625;47.176;27.548;2023-07-13T01:05:24;7.97;;;5.55;;
48805;SDS011;34625;47.176;27.548;2023-07-13T01:07:50;7.07;;;5.47;;
48805;SDS011;34625;47.176;27.548;2023-07-13T01:10:19;9.63;;;5.63;;
48805;SDS011;34625;47.176;27.548;2023-07-13T01:12:48;9.45;;;5.97;;
48805;SDS011;34625;47.176;27.548;2023-07-13T01:18:21;8.10;;;5.75;;
48805;SDS011;34625;47.176;27.548;2023-07-13T01:20:59;7.40;;;6.35;;
48805;SDS011;34625;47.176;27.548;2023-07-13T01:23:27;7.70;;;5.53;;
48805;SDS011;34625;47.176;27.548;2023-07-13T01:25:55;8.57;;;5.15;;
48805;SDS011;34625;47.176;27.548;2023-07-13T01:28:22;11.93;;;6.13;;
48805;SDS011;34625;47.176;27.548;2023-07-13T01:30:52;9.90;;;6.00;;
48805;SDS011;34625;47.176;27.548;2023-07-13T01:33:19;7.43;;;5.55;;
48805;SDS011;34625;47.176;27.548;2023-07-13T01:35:46;9.85;;;6.30;;
48805;SDS011;34625;47.176;27.548;2023-07-13T01:38:16;9.70;;;6.28;;
48805;SDS011;34625;47.176;27.548;2023-07-13T01:40:44;11.73;;;6.13;;
48805;SDS011;34625;47.176;27.548;2023-07-13T01:43:11;8.70;;;5.45;;
48805;SDS011;34625;47.176;27.548;2023-07-13T01:45:37;6.30;;;5.45;;
48805;SDS011;34625;47.176;27.548;2023-07-13T01:48:03;7.47;;;5.60;;
48805;SDS011;34625;47.176;27.548;2023-07-13T01:50:32;8.38;;;5.65;;
48805;SDS011;34625;47.176;27.548;2023-07-13T01:52:58;8.23;;;5.88;;
48805;SDS011;34625;47.176;27.548;2023-07-13T01:55:25;6.45;;;5.53;;
48805;SDS011;34625;47.176;27.548;2023-07-13T01:57:51;7.60;;;5.15;;
48805;SDS011;34625;47.176;27.548;2023-07-13T02:00:17;6.78;;;5.47;;
48805;SDS011;34625;47.176;27.548;2023-07-13T02:02:46;7.22;;;5.32;;
48805;SDS011;34625;47.176;27.548;2023-07-13T02:05:13;7.50;;;4.85;;
48805;SDS011;34625;47.176;27.548;2023-07-13T02:07:40;5.50;;;4.78;;
48805;SDS011;34625;47.176;27.548;2023-07-13T02:10:07;5.18;;;4.68;;
48805;SDS011;34625;47.176;27.548;2023-07-13T02:12:34;8.40;;;4.80;;
48805;SDS011;34625;47.176;27.548;2023-07-13T02:15:01;6.45;;;4.40;;
48805;SDS011;34625;47.176;27.548;2023-07-13T02:17:28;7.85;;;4.82;;
48805;SDS011;34625;47.176;27.548;2023-07-13T02:19:54;9.70;;;5.00;;
48805;SDS011;34625;47.176;27.548;2023-07-13T02:22:21;5.18;;;4.68;;
48805;SDS011;34625;47.176;27.548;2023-07-13T02:24:47;5.55;;;4.57;;
48805;SDS011;34625;47.176;27.548;2023-07-13T02:27:15;8.18;;;4.43;;
48805;SDS011;34625;47.176;27.548;2023-07-13T02:29:41;4.05;;;3.65;;
48805;SDS011;34625;47.176;27.548;2023-07-13T02:32:08;5.07;;;3.95;;
48805;SDS011;34625;47.176;27.548;2023-07-13T02:34:34;6.40;;;4.50;;
48805;SDS011;34625;47.176;27.548;2023-07-13T02:37:00;6.50;;;4.35;;
48805;SDS011;34625;47.176;27.548;2023-07-13T02:39:26;7.63;;;3.80;;
48805;SDS011;34625;47.176;27.548;2023-07-13T02:41:52;7.50;;;4.20;;
48805;SDS011;34625;47.176;27.548;2023-07-13T02:44:18;8.00;;;3.88;;
48805;SDS011;34625;47.176;27.548;2023-07-13T02:46:44;3.95;;;3.28;;
48805;SDS011;34625;47.176;27.548;2023-07-13T02:49:10;4.82;;;3.92;;
48805;SDS011;34625;47.176;27.548;2023-07-13T02:51:36;5.20;;;3.85;;
48805;SDS011;34625;47.176;27.548;2023-07-13T02:54:03;6.50;;;3.60;;
48805;SDS011;34625;47.176;27.548;2023-07-13T02:56:31;4.93;;;4.22;;
48805;SDS011;34625;47.176;27.548;2023-07-13T02:58:58;4.32;;;3.78;;
48805;SDS011;34625;47.176;27.548;2023-07-13T03:01:24;4.82;;;4.03;;
48805;SDS011;34625;47.176;27.548;2023-07-13T03:03:50;6.50;;;4.00;;
48805;SDS011;34625;47.176;27.548;2023-07-13T03:06:18;6.75;;;4.72;;
48805;SDS011;34625;47.176;27.548;2023-07-13T03:08:50;8.77;;;5.28;;
48805;SDS011;34625;47.176;27.548;2023-07-13T03:11:17;6.18;;;4.90;;
48805;SDS011;34625;47.176;27.548;2023-07-13T03:13:49;5.80;;;4.55;;
48805;SDS011;34625;47.176;27.548;2023-07-13T03:16:16;7.20;;;5.45;;
48805;SDS011;34625;47.176;27.548;2023-07-13T03:18:44;10.65;;;5.65;;
48805;SDS011;34625;47.176;27.548;2023-07-13T03:21:11;9.40;;;5.00;;
48805;SDS011;34625;47.176;27.548;2023-07-13T03:23:38;5.78;;;5.00;;
48805;SDS011;34625;47.176;27.548;2023-07-13T03:26:06;6.40;;;5.18;;
48805;SDS011;34625;47.176;27.548;2023-07-13T03:28:43;6.68;;;5.50;;
48805;SDS011;34625;47.176;27.548;2023-07-13T03:31:16;5.88;;;4.32;;
48805;SDS011;34625;47.176;27.548;2023-07-13T03:33:44;5.05;;;3.90;;
48805;SDS011;34625;47.176;27.548;2023-07-13T03:36:16;7.03;;;4.75;;
48805;SDS011;34625;47.176;27.548;2023-07-13T03:38:48;5.45;;;4.45;;
48805;SDS011;34625;47.176;27.548;2023-07-13T03:41:17;6.00;;;5.03;;
48805;SDS011;34625;47.176;27.548;2023-07-13T03:43:44;3.90;;;3.13;;
48805;SDS011;34625;47.176;27.548;2023-07-13T03:46:11;2.45;;;2.25;;
48805;SDS011;34625;47.176;27.548;2023-07-13T03:48:37;4.25;;;3.83;;
48805;SDS011;34625;47.176;27.548;2023-07-13T03:51:05;4.88;;;3.60;;
48805;SDS011;34625;47.176;27.548;2023-07-13T03:53:31;5.45;;;3.60;;
48805;SDS011;34625;47.176;27.548;2023-07-13T03:55:57;5.53;;;4.05;;
48805;SDS011;34625;47.176;27.548;2023-07-13T03:58:34;4.65;;;3.40;;
48805;SDS011;34625;47.176;27.548;2023-07-13T04:01:10;4.95;;;3.70;;
48805;SDS011;34625;47.176;27.548;2023-07-13T04:03:38;6.10;;;4.05;;
48805;SDS011;34625;47.176;27.548;2023-07-13T04:06:07;5.22;;;4.13;;
48805;SDS011;34625;47.176;27.548;2023-07-13T04:08:40;6.20;;;4.13;;
48805;SDS011;34625;47.176;27.548;2023-07-13T04:11:06;4.55;;;4.07;;
48805;SDS011;34625;47.176;27.548;2023-07-13T04:13:32;5.25;;;4.57;;
48805;SDS011;34625;47.176;27.548;2023-07-13T04:15:58;7.72;;;4.43;;
48805;SDS011;34625;47.176;27.548;2023-07-13T04:18:24;7.72;;;4.43;;
48805;SDS011;34625;47.176;27.548;2023-07-13T04:20:51;6.88;;;4.88;;
48805;SDS011;34625;47.176;27.548;2023-07-13T04:23:17;8.57;;;4.43;;
48805;SDS011;34625;47.176;27.548;2023-07-13T04:25:46;5.05;;;4.40;;
48805;SDS011;34625;47.176;27.548;2023-07-13T04:28:18;4.10;;;3.70;;
48805;SDS011;34625;47.176;27.548;2023-07-13T04:30:46;5.28;;;3.97;;
48805;SDS011;34625;47.176;27.548;2023-07-13T04:33:12;5.47;;;4.15;;
48805;SDS011;34625;47.176;27.548;2023-07-13T04:35:38;4.82;;;3.55;;
48805;SDS011;34625;47.176;27.548;2023-07-13T04:38:04;4.60;;;4.03;;
48805;SDS011;34625;47.176;27.548;2023-07-13T04:40:31;3.90;;;3.55;;
48805;SDS011;34625;47.176;27.548;2023-07-13T04:42:57;4.28;;;3.65;;
48805;SDS011;34625;47.176;27.548;2023-07-13T04:45:23;5.15;;;3.53;;
48805;SDS011;34625;47.176;27.548;2023-07-13T04:47:50;4.82;;;3.88;;
48805;SDS011;34625;47.176;27.548;2023-07-13T04:50:16;4.57;;;3.38;;
48805;SDS011;34625;47.176;27.548;2023-07-13T04:52:46;5.30;;;3.70;;
48805;SDS011;34625;47.176;27.548;2023-07-13T04:55:13;4.72;;;3.92;;
48805;SDS011;34625;47.176;27.548;2023-07-13T04:57:39;5.82;;;3.92;;
48805;SDS011;34625;47.176;27.548;2023-07-13T05:00:05;4.75;;;3.80;;
48805;SDS011;34625;47.176;27.548;2023-07-13T05:02:32;6.47;;;4.03;;
48805;SDS011;34625;47.176;27.548;2023-07-13T05:04:59;5.85;;;4.22;;
48805;SDS011;34625;47.176;27.548;2023-07-13T05:07:26;6.88;;;4.50;;
48805;SDS011;34625;47.176;27.548;2023-07-13T05:09:52;7.65;;;4.57;;
48805;SDS011;34625;47.176;27.548;2023-07-13T05:12:18;9.07;;;4.57;;
48805;SDS011;34625;47.176;27.548;2023-07-13T05:14:44;6.53;;;4.43;;
48805;SDS011;34625;47.176;27.548;2023-07-13T05:17:10;5.85;;;4.60;;
48805;SDS011;34625;47.176;27.548;2023-07-13T05:19:36;4.95;;;4.30;;
48805;SDS011;34625;47.176;27.548;2023-07-13T05:22:02;5.32;;;4.43;;
48805;SDS011;34625;47.176;27.548;2023-07-13T05:24:29;6.47;;;4.85;;
48805;SDS011;34625;47.176;27.548;2023-07-13T05:26:55;7.32;;;4.25;;
48805;SDS011;34625;47.176;27.548;2023-07-13T05:29:22;5.70;;;4.18;;
48805;SDS011;34625;47.176;27.548;2023-07-13T05:31:48;5.93;;;4.07;;
48805;SDS011;34625;47.176;27.548;2023-07-13T05:34:14;7.80;;;4.38;;
48805;SDS011;34625;47.176;27.548;2023-07-13T05:36:40;5.93;;;4.45;;
48805;SDS011;34625;47.176;27.548;2023-07-13T05:39:07;5.10;;;3.92;;
48805;SDS011;34625;47.176;27.548;2023-07-13T05:41:34;5.30;;;4.20;;
48805;SDS011;34625;47.176;27.548;2023-07-13T05:44:00;7.40;;;4.40;;
48805;SDS011;34625;47.176;27.548;2023-07-13T05:46:26;5.63;;;4.45;;
48805;SDS011;34625;47.176;27.548;2023-07-13T05:48:52;6.65;;;4.07;;
48805;SDS011;34625;47.176;27.548;2023-07-13T05:51:18;5.25;;;4.05;;
48805;SDS011;34625;47.176;27.548;2023-07-13T05:53:44;7.07;;;5.43;;
48805;SDS011;34625;47.176;27.548;2023-07-13T05:56:10;5.97;;;4.07;;
48805;SDS011;34625;47.176;27.548;2023-07-13T05:58:37;8.98;;;4.40;;
48805;SDS011;34625;47.176;27.548;2023-07-13T06:01:07;8.38;;;4.50;;
48805;SDS011;34625;47.176;27.548;2023-07-13T06:03:36;5.57;;;4.78;;
48805;SDS011;34625;47.176;27.548;2023-07-13T06:06:06;7.13;;;4.20;;
48805;SDS011;34625;47.176;27.548;2023-07-13T06:08:34;5.93;;;4.72;;
48805;SDS011;34625;47.176;27.548;2023-07-13T06:11:09;8.40;;;5.03;;
48805;SDS011;34625;47.176;27.548;2023-07-13T06:13:38;8.23;;;5.15;;
48805;SDS011;34625;47.176;27.548;2023-07-13T06:16:05;8.27;;;5.50;;
48805;SDS011;34625;47.176;27.548;2023-07-13T06:18:32;8.10;;;5.35;;
48805;SDS011;34625;47.176;27.548;2023-07-13T06:20:58;7.28;;;4.75;;
48805;SDS011;34625;47.176;27.548;2023-07-13T06:23:25;7.93;;;4.88;;
48805;SDS011;34625;47.176;27.548;2023-07-13T06:25:51;9.48;;;5.40;;
48805;SDS011;34625;47.176;27.548;2023-07-13T06:28:17;9.15;;;4.00;;
48805;SDS011;34625;47.176;27.548;2023-07-13T06:30:44;4.82;;;4.05;;
48805;SDS011;34625;47.176;27.548;2023-07-13T06:33:10;7.78;;;5.40;;
48805;SDS011;34625;47.176;27.548;2023-07-13T06:35:36;9.93;;;5.97;;
48805;SDS011;34625;47.176;27.548;2023-07-13T06:38:01;5.57;;;4.97;;
48805;SDS011;34625;47.176;27.548;2023-07-13T06:40:28;11.85;;;6.78;;
48805;SDS011;34625;47.176;27.548;2023-07-13T06:42:55;9.40;;;5.35;;
48805;SDS011;34625;47.176;27.548;2023-07-13T06:45:21;7.00;;;5.55;;
48805;SDS011;34625;47.176;27.548;2023-07-13T06:47:48;10.57;;;5.55;;
48805;SDS011;34625;47.176;27.548;2023-07-13T06:50:14;6.72;;;4.95;;
48805;SDS011;34625;47.176;27.548;2023-07-13T06:52:41;6.25;;;5.13;;
48805;SDS011;34625;47.176;27.548;2023-07-13T06:55:07;6.88;;;5.32;;
48805;SDS011;34625;47.176;27.548;2023-07-13T06:57:33;10.15;;;5.75;;
48805;SDS011;34625;47.176;27.548;2023-07-13T06:59:59;9.02;;;7.88;;
48805;SDS011;34625;47.176;27.548;2023-07-13T07:02:25;10.40;;;7.30;;
48805;SDS011;34625;47.176;27.548;2023-07-13T07:04:51;10.00;;;7.43;;
48805;SDS011;34625;47.176;27.548;2023-07-13T07:07:19;13.50;;;8.35;;
48805;SDS011;34625;47.176;27.548;2023-07-13T07:09:45;10.27;;;7.38;;
48805;SDS011;34625;47.176;27.548;2023-07-13T07:12:11;8.65;;;7.07;;
48805;SDS011;34625;47.176;27.548;2023-07-13T07:14:37;12.10;;;7.47;;
48805;SDS011;34625;47.176;27.548;2023-07-13T07:17:03;15.15;;;9.10;;
48805;SDS011;34625;47.176;27.548;2023-07-13T07:19:29;14.57;;;8.68;;
48805;SDS011;34625;47.176;27.548;2023-07-13T07:21:56;10.68;;;6.68;;
48805;SDS011;34625;47.176;27.548;2023-07-13T07:24:22;15.63;;;7.97;;
48805;SDS011;34625;47.176;27.548;2023-07-13T07:26:48;12.43;;;7.90;;
48805;SDS011;34625;47.176;27.548;2023-07-13T07:29:14;10.25;;;6.80;;
48805;SDS011;34625;47.176;27.548;2023-07-13T07:31:39;10.40;;;7.10;;
48805;SDS011;34625;47.176;27.548;2023-07-13T07:34:05;11.38;;;8.90;;
48805;SDS011;34625;47.176;27.548;2023-07-13T07:36:32;8.70;;;6.95;;
48805;SDS011;34625;47.176;27.548;2023-07-13T07:38:58;9.98;;;6.57;;
48805;SDS011;34625;47.176;27.548;2023-07-13T07:41:23;10.05;;;7.05;;
48805;SDS011;34625;47.176;27.548;2023-07-13T07:43:49;10.25;;;7.03;;
48805;SDS011;34625;47.176;27.548;2023-07-13T07:46:15;8.15;;;6.93;;
48805;SDS011;34625;47.176;27.548;2023-07-13T07:48:41;10.52;;;7.55;;
48805;SDS011;34625;47.176;27.548;2023-07-13T07:51:07;11.45;;;7.75;;
48805;SDS011;34625;47.176;27.548;2023-07-13T07:53:33;8.02;;;6.72;;
48805;SDS011;34625;47.176;27.548;2023-07-13T07:55:59;10.35;;;7.18;;
48805;SDS011;34625;47.176;27.548;2023-07-13T07:58:25;10.80;;;7.10;;
48805;SDS011;34625;47.176;27.548;2023-07-13T08:00:51;9.60;;;5.85;;
48805;SDS011;34625;47.176;27.548;2023-07-13T08:03:17;7.43;;;6.45;;
48805;SDS011;34625;47.176;27.548;2023-07-13T08:05:43;14.82;;;6.32;;
48805;SDS011;34625;47.176;27.548;2023-07-13T08:08:09;12.88;;;6.35;;
48805;SDS011;34625;47.176;27.548;2023-07-13T08:10:35;19.33;;;7.95;;
48805;SDS011;34625;47.176;27.548;2023-07-13T08:13:02;12.38;;;6.63;;
48805;SDS011;34625;47.176;27.548;2023-07-13T08:15:28;14.90;;;7.70;;
48805;SDS011;34625;47.176;27.548;2023-07-13T08:17:54;6.43;;;5.63;;
48805;SDS011;34625;47.176;27.548;2023-07-13T08:20:20;7.97;;;5.75;;
48805;SDS011;34625;47.176;27.548;2023-07-13T08:22:46;6.22;;;5.20;;
48805;SDS011;34625;47.176;27.548;2023-07-13T08:25:12;7.05;;;4.45;;
48805;SDS011;34625;47.176;27.548;2023-07-13T08:27:38;6.47;;;4.63;;
48805;SDS011;34625;47.176;27.548;2023-07-13T08:30:05;8.43;;;5.18;;
48805;SDS011;34625;47.176;27.548;2023-07-13T08:32:32;8.68;;;5.07;;
48805;SDS011;34625;47.176;27.548;2023-07-13T08:34:58;9.57;;;5.30;;
48805;SDS011;34625;47.176;27.548;2023-07-13T08:37:24;8.52;;;5.72;;
48805;SDS011;34625;47.176;27.548;2023-07-13T08:39:50;9.90;;;6.60;;
48805;SDS011;34625;47.176;27.548;2023-07-13T08:42:33;6.43;;;5.78;;
48805;SDS011;34625;47.176;27.548;2023-07-13T08:45:17;8.18;;;5.25;;
48805;SDS011;34625;47.176;27.548;2023-07-13T08:47:56;8.05;;;6.00;;
48805;SDS011;34625;47.176;27.548;2023-07-13T08:50:30;7.00;;;6.30;;
48805;SDS011;34625;47.176;27.548;2023-07-13T08:53:01;7.68;;;5.50;;
48805;SDS011;34625;47.176;27.548;2023-07-13T08:55:30;8.38;;;5.75;;
48805;SDS011;34625;47.176;27.548;2023-07-13T09:00:37;7.07;;;5.80;;
48805;SDS011;34625;47.176;27.548;2023-07-13T09:03:20;5.97;;;4.57;;
48805;SDS011;34625;47.176;27.548;2023-07-13T09:05:51;14.25;;;5.40;;
48805;SDS011;34625;47.176;27.548;2023-07-13T09:08:30;5.97;;;5.10;;
48805;SDS011;34625;47.176;27.548;2023-07-13T09:16:27;7.82;;;4.90;;
48805;SDS011;34625;47.176;27.548;2023-07-13T09:18:54;7.95;;;4.70;;
48805;SDS011;34625;47.176;27.548;2023-07-13T09:21:33;7.15;;;4.45;;
48805;SDS011;34625;47.176;27.548;2023-07-13T09:24:26;6.15;;;4.80;;
48805;SDS011;34625;47.176;27.548;2023-07-13T09:27:13;4.18;;;3.78;;
48805;SDS011;34625;47.176;27.548;2023-07-13T09:29:48;6.18;;;5.47;;
48805;SDS011;34625;47.176;27.548;2023-07-13T09:32:23;5.32;;;4.78;;
48805;SDS011;34625;47.176;27.548;2023-07-13T09:34:52;6.28;;;4.43;;
48805;SDS011;34625;47.176;27.548;2023-07-13T09:37:23;7.00;;;4.82;;
48805;SDS011;34625;47.176;27.548;2023-07-13T09:39:56;10.27;;;4.85;;
48805;SDS011;34625;47.176;27.548;2023-07-13T09:42:24;7.43;;;4.63;;
48805;SDS011;34625;47.176;27.548;2023-07-13T09:44:52;6.85;;;5.25;;
48805;SDS011;34625;47.176;27.548;2023-07-13T09:47:21;5.78;;;4.93;;
48805;SDS011;34625;47.176;27.548;2023-07-13T09:50:01;6.85;;;5.00;;
48805;SDS011;34625;47.176;27.548;2023-07-13T09:52:43;6.90;;;4.28;;
48805;SDS011;34625;47.176;27.548;2023-07-13T09:55:29;5.63;;;4.72;;
48805;SDS011;34625;47.176;27.548;2023-07-13T09:57:55;7.28;;;4.30;;
48805;SDS011;34625;47.176;27.548;2023-07-13T10:00:23;6.15;;;4.43;;
48805;SDS011;34625;47.176;27.548;2023-07-13T10:03:01;6.25;;;4.15;;
48805;SDS011;34625;47.176;27.548;2023-07-13T10:05:37;4.40;;;4.00;;
48805;SDS011;34625;47.176;27.548;2023-07-13T10:08:04;7.70;;;4.40;;
48805;SDS011;34625;47.176;27.548;2023-07-13T10:10:32;5.15;;;4.25;;
48805;SDS011;34625;47.176;27.548;2023-07-13T10:13:01;5.35;;;3.95;;
48805;SDS011;34625;47.176;27.548;2023-07-13T10:15:29;4.35;;;3.95;;
48805;SDS011;34625;47.176;27.548;2023-07-13T10:17:55;4.68;;;3.92;;
48805;SDS011;34625;47.176;27.548;2023-07-13T10:20:23;4.97;;;4.47;;
48805;SDS011;34625;47.176;27.548;2023-07-13T10:23:08;6.10;;;4.65;;
48805;SDS011;34625;47.176;27.548;2023-07-13T10:25:41;7.47;;;4.32;;
48805;SDS011;34625;47.176;27.548;2023-07-13T10:30:36;4.45;;;3.92;;
48805;SDS011;34625;47.176;27.548;2023-07-13T10:33:12;5.25;;;4.45;;
48805;SDS011;34625;47.176;27.548;2023-07-13T10:35:40;4.70;;;4.15;;
48805;SDS011;34625;47.176;27.548;2023-07-13T10:38:19;5.95;;;4.40;;
48805;SDS011;34625;47.176;27.548;2023-07-13T10:40:55;5.00;;;4.57;;
48805;SDS011;34625;47.176;27.548;2023-07-13T10:43:39;7.50;;;4.47;;
48805;SDS011;34625;47.176;27.548;2023-07-13T10:46:09;7.10;;;4.15;;
48805;SDS011;34625;47.176;27.548;2023-07-13T10:48:38;9.68;;;5.25;;
48805;SDS011;34625;47.176;27.548;2023-07-13T10:51:05;6.28;;;4.68;;
48805;SDS011;34625;47.176;27.548;2023-07-13T10:53:35;5.40;;;4.15;;
48805;SDS011;34625;47.176;27.548;2023-07-13T10:56:06;4.97;;;4.30;;
48805;SDS011;34625;47.176;27.548;2023-07-13T10:59:05;5.43;;;4.20;;
48805;SDS011;34625;47.176;27.548;2023-07-13T11:01:49;4.95;;;4.45;;
48805;SDS011;34625;47.176;27.548;2023-07-13T11:04:20;5.55;;;3.13;;
48805;SDS011;34625;47.176;27.548;2023-07-13T11:06:48;5.07;;;3.88;;
48805;SDS011;34625;47.176;27.548;2023-07-13T11:12:01;15.02;;;9.70;;
48805;SDS011;34625;47.176;27.548;2023-07-13T11:14:36;6.53;;;5.78;;
48805;SDS011;34625;47.176;27.548;2023-07-13T11:20:10;6.38;;;4.65;;
48805;SDS011;34625;47.176;27.548;2023-07-13T11:25:34;8.10;;;5.10;;
48805;SDS011;34625;47.176;27.548;2023-07-13T11:35:59;5.95;;;4.85;;
48805;SDS011;34625;47.176;27.548;2023-07-13T11:38:39;6.30;;;5.35;;
48805;SDS011;34625;47.176;27.548;2023-07-13T11:43:44;7.65;;;4.50;;
48805;SDS011;34625;47.176;27.548;2023-07-13T11:46:15;7.20;;;4.68;;
48805;SDS011;34625;47.176;27.548;2023-07-13T11:48:45;5.40;;;3.70;;
48805;SDS011;34625;47.176;27.548;2023-07-13T11:51:31;5.68;;;3.83;;
48805;SDS011;34625;47.176;27.548;2023-07-13T11:54:05;4.82;;;4.00;;
48805;SDS011;34625;47.176;27.548;2023-07-13T11:56:40;11.23;;;5.32;;
48805;SDS011;34625;47.176;27.548;2023-07-13T11:59:07;4.93;;;4.20;;
48805;SDS011;34625;47.176;27.548;2023-07-13T12:01:41;6.30;;;5.27;;
48805;SDS011;34625;47.176;27.548;2023-07-13T12:04:18;5.07;;;3.83;;
48805;SDS011;34625;47.176;27.548;2023-07-13T12:06:47;8.48;;;3.88;;
48805;SDS011;34625;47.176;27.548;2023-07-13T12:09:25;5.35;;;3.85;;
48805;SDS011;34625;47.176;27.548;2023-07-13T12:11:53;7.55;;;4.57;;
48805;SDS011;34625;47.176;27.548;2023-07-13T12:14:19;6.20;;;4.30;;
48805;SDS011;34625;47.176;27.548;2023-07-13T12:16:46;4.30;;;3.88;;
48805;SDS011;34625;47.176;27.548;2023-07-13T12:19:21;4.05;;;3.53;;
48805;SDS011;34625;47.176;27.548;2023-07-13T12:21:48;7.65;;;4.63;;
48805;SDS011;34625;47.176;27.548;2023-07-13T12:24:16;6.43;;;4.00;;
48805;SDS011;34625;47.176;27.548;2023-07-13T12:26:44;5.85;;;2.08;;
48805;SDS011;34625;47.176;27.548;2023-07-13T12:31:44;5.03;;;3.53;;
48805;SDS011;34625;47.176;27.548;2023-07-13T12:34:15;4.15;;;2.33;;
48805;SDS011;34625;47.176;27.548;2023-07-13T12:39:17;3.05;;;2.08;;
48805;SDS011;34625;47.176;27.548;2023-07-13T12:41:44;4.78;;;2.33;;
48805;SDS011;34625;47.176;27.548;2023-07-13T12:44:11;2.85;;;1.25;;
48805;SDS011;34625;47.176;27.548;2023-07-13T12:46:39;4.45;;;1.75;;
48805;SDS011;34625;47.176;27.548;2023-07-13T12:49:16;5.57;;;1.75;;
48805;SDS011;34625;47.176;27.548;2023-07-13T12:51:44;5.65;;;3.10;;
48805;SDS011;34625;47.176;27.548;2023-07-13T12:54:15;5.03;;;2.70;;
48805;SDS011;34625;47.176;27.548;2023-07-13T12:56:43;1.13;;;1.10;;
48805;SDS011;34625;47.176;27.548;2023-07-13T12:59:16;3.53;;;1.17;;
48805;SDS011;34625;47.176;27.548;2023-07-13T13:01:45;4.25;;;1.42;;
48805;SDS011;34625;47.176;27.548;2023-07-13T13:04:12;4.07;;;1.73;;
48805;SDS011;34625;47.176;27.548;2023-07-13T13:06:39;4.32;;;1.60;;
48805;SDS011;34625;47.176;27.548;2023-07-13T13:09:09;4.40;;;1.67;;
48805;SDS011;34625;47.176;27.548;2023-07-13T13:11:41;1.80;;;1.27;;
48805;SDS011;34625;47.176;27.548;2023-07-13T13:14:07;4.40;;;1.33;;
48805;SDS011;34625;47.176;27.548;2023-07-13T13:16:35;4.10;;;1.55;;
48805;SDS011;34625;47.176;27.548;2023-07-13T13:19:12;3.50;;;1.50;;
48805;SDS011;34625;47.176;27.548;2023-07-13T13:21:41;2.33;;;1.38;;
48805;SDS011;34625;47.176;27.548;2023-07-13T13:24:12;3.75;;;1.58;;
48805;SDS011;34625;47.176;27.548;2023-07-13T13:26:40;5.28;;;1.77;;
48805;SDS011;34625;47.176;27.548;2023-07-13T13:29:13;5.47;;;1.70;;
48805;SDS011;34625;47.176;27.548;2023-07-13T13:31:41;2.55;;;1.63;;
48805;SDS011;34625;47.176;27.548;2023-07-13T13:34:12;4.25;;;1.70;;
48805;SDS011;34625;47.176;27.548;2023-07-13T13:36:39;2.97;;;2.05;;
48805;SDS011;34625;47.176;27.548;2023-07-13T13:39:15;3.70;;;1.63;;
48805;SDS011;34625;47.176;27.548;2023-07-13T13:41:53;2.97;;;2.15;;
48805;SDS011;34625;47.176;27.548;2023-07-13T13:44:19;1.85;;;1.33;;
48805;SDS011;34625;47.176;27.548;2023-07-13T13:46:47;1.70;;;1.52;;
48805;SDS011;34625;47.176;27.548;2023-07-13T13:49:16;2.70;;;1.83;;
48805;SDS011;34625;47.176;27.548;2023-07-13T13:51:44;5.20;;;2.10;;
48805;SDS011;34625;47.176;27.548;2023-07-13T13:54:12;4.30;;;2.30;;
48805;SDS011;34625;47.176;27.548;2023-07-13T13:56:43;6.53;;;1.25;;
48805;SDS011;34625;47.176;27.548;2023-07-13T13:59:10;5.72;;;2.42;;
48805;SDS011;34625;47.176;27.548;2023-07-13T14:01:37;4.70;;;2.20;;
48805;SDS011;34625;47.176;27.548;2023-07-13T14:04:04;5.22;;;2.72;;
48805;SDS011;34625;47.176;27.548;2023-07-13T14:06:31;13.52;;;3.88;;
48805;SDS011;34625;47.176;27.548;2023-07-13T14:08:58;3.38;;;2.35;;
48805;SDS011;34625;47.176;27.548;2023-07-13T14:11:25;6.45;;;1.75;;
48805;SDS011;34625;47.176;27.548;2023-07-13T14:13:55;4.30;;;2.30;;
48805;SDS011;34625;47.176;27.548;2023-07-13T14:16:25;4.72;;;1.65;;
48805;SDS011;34625;47.176;27.548;2023-07-13T14:18:54;5.28;;;1.70;;
48805;SDS011;34625;47.176;27.548;2023-07-13T14:21:23;6.68;;;1.77;;
48805;SDS011;34625;47.176;27.548;2023-07-13T14:23:50;6.10;;;1.83;;
48805;SDS011;34625;47.176;27.548;2023-07-13T14:26:17;3.35;;;1.77;;
48805;SDS011;34625;47.176;27.548;2023-07-13T14:28:49;4.33;;;1.57;;
48805;SDS011;34625;47.176;27.548;2023-07-13T14:31:17;6.07;;;2.35;;
48805;SDS011;34625;47.176;27.548;2023-07-13T14:33:44;1.52;;;1.42;;
48805;SDS011;34625;47.176;27.548;2023-07-13T14:36:29;3.38;;;1.98;;
48805;SDS011;34625;47.176;27.548;2023-07-13T14:38:58;4.05;;;2.00;;
48805;SDS011;34625;47.176;27.548;2023-07-13T14:41:26;1.70;;;1.58;;
48805;SDS011;34625;47.176;27.548;2023-07-13T14:43:52;2.13;;;1.58;;
48805;SDS011;34625;47.176;27.548;2023-07-13T14:46:22;2.60;;;1.73;;
48805;SDS011;34625;47.176;27.548;2023-07-13T14:51:46;4.10;;;1.90;;
48805;SDS011;34625;47.176;27.548;2023-07-13T14:54:12;3.10;;;1.60;;
48805;SDS011;34625;47.176;27.548;2023-07-13T14:56:38;2.67;;;1.67;;
48805;SDS011;34625;47.176;27.548;2023-07-13T14:59:04;3.72;;;2.13;;
48805;SDS011;34625;47.176;27.548;2023-07-13T15:01:30;8.52;;;2.33;;
48805;SDS011;34625;47.176;27.548;2023-07-13T15:03:56;6.18;;;1.67;;
48805;SDS011;34625;47.176;27.548;2023-07-13T15:06:23;4.43;;;1.63;;
48805;SDS011;34625;47.176;27.548;2023-07-13T15:08:49;5.75;;;1.85;;
48805;SDS011;34625;47.176;27.548;2023-07-13T15:11:16;2.80;;;1.80;;
48805;SDS011;34625;47.176;27.548;2023-07-13T15:13:42;4.30;;;1.88;;
48805;SDS011;34625;47.176;27.548;2023-07-13T15:16:21;4.63;;;1.38;;
48805;SDS011;34625;47.176;27.548;2023-07-13T15:18:49;5.18;;;1.50;;
48805;SDS011;34625;47.176;27.548;2023-07-13T15:21:21;2.35;;;1.70;;
48805;SDS011;34625;47.176;27.548;2023-07-13T15:23:49;4.07;;;1.63;;
48805;SDS011;34625;47.176;27.548;2023-07-13T15:26:16;3.35;;;1.42;;